Time;durP1;ratioP1;P1;durP2;ratioP2;P2;SDS_P1;SDS_P2;PMS_P1;PMS_P2;Temp;Humidity;BMP_temperature;BMP_pressure;BME280_temperature;BME280_humidity;BME280_pressure;Samples;Min_cycle;Max_cycle;Signal;HPM_P1;HPM_P2
2021/12/06 00:00:43;;;;;;;8.32;4.05;;;;;;;20.18;39.37;100550.88;2109291;28;20052;-76
2021/12/06 00:01:50;;;;;;;7.95;4.22;;;;;;;20.17;39.52;100543.81;2109749;28;20036;-75
2021/12/06 00:03:03;;;;;;;9.32;4.53;;;;;;;20.19;39.54;100554.41;2108442;28;20051;-74
2021/12/06 00:04:12;;;;;;;6.85;3.78;;;;;;;20.20;39.53;100555.97;2108950;28;20127;-73
2021/12/06 00:05:16;;;;;;;6.32;3.80;;;;;;;20.20;39.48;100548.53;2109508;28;20059;-74
2021/12/06 00:06:22;;;;;;;6.88;3.72;;;;;;;20.20;39.38;100556.78;2101890;28;20040;-74
2021/12/06 00:07:26;;;;;;;6.40;3.63;;;;;;;20.20;39.29;100559.50;2097834;28;20051;-73
2021/12/06 00:09:52;;;;;;;9.50;4.35;;;;;;;20.20;39.40;100554.03;2087583;28;20075;-74
2021/12/06 00:10:55;;;;;;;8.00;3.67;;;;;;;20.11;39.32;100534.28;2094790;28;20881;-79
2021/12/06 00:12:03;;;;;;;7.85;3.72;;;;;;;20.20;39.38;100554.03;2095893;28;20044;-78
2021/12/06 00:13:07;;;;;;;6.82;3.95;;;;;;;20.19;39.35;100555.19;2096343;28;20056;-77
2021/12/06 00:14:15;;;;;;;6.65;3.65;;;;;;;20.20;39.25;100554.03;2095817;28;20052;-78
2021/12/06 00:15:21;;;;;;;6.72;3.70;;;;;;;20.20;39.32;100558.72;2096125;28;20044;-78
2021/12/06 00:16:27;;;;;;;6.50;3.63;;;;;;;20.20;39.40;100564.22;2095571;28;20157;-79
2021/12/06 00:17:31;;;;;;;7.40;3.60;;;;;;;20.17;39.38;100554.78;2096036;28;20630;-75
2021/12/06 00:18:37;;;;;;;6.45;3.28;;;;;;;20.19;39.45;100557.94;2096899;28;20060;-75
2021/12/06 00:19:45;;;;;;;6.25;3.72;;;;;;;20.20;39.47;100558.72;2096942;28;20041;-76
2021/12/06 00:20:49;;;;;;;6.90;3.67;;;;;;;20.20;39.52;100565.00;2096867;28;20087;-76
2021/12/06 00:21:54;;;;;;;6.60;3.30;;;;;;;20.20;39.62;100559.50;2096277;28;20052;-76
2021/12/06 00:22:58;;;;;;;5.78;3.65;;;;;;;20.21;39.67;100555.63;2096130;28;20052;-76
2021/12/06 00:24:04;;;;;;;5.88;3.75;;;;;;;20.21;39.48;100558.38;2096403;28;20173;-77
2021/12/06 00:25:09;;;;;;;5.57;3.25;;;;;;;20.21;39.45;100554.84;2096916;28;20147;-77
2021/12/06 00:26:14;;;;;;;6.80;3.40;;;;;;;20.21;39.50;100561.13;2096273;28;20063;-77
2021/12/06 00:27:18;;;;;;;6.60;3.80;;;;;;;20.22;39.40;100565.44;2096357;28;20060;-78
2021/12/06 00:28:26;;;;;;;6.35;3.60;;;;;;;20.21;39.31;100560.34;2095525;28;20075;-77
2021/12/06 00:29:32;;;;;;;6.38;3.50;;;;;;;20.21;39.33;100561.13;2088117;28;20045;-78
2021/12/06 00:30:36;;;;;;;8.32;4.07;;;;;;;20.22;39.33;100568.19;2087947;28;20049;-78
2021/12/06 00:31:40;;;;;;;5.90;3.42;;;;;;;20.23;39.38;100560.75;2095390;28;20141;-76
2021/12/06 00:32:45;;;;;;;6.75;3.40;;;;;;;20.25;39.24;100580.38;2096915;28;20036;-76
2021/12/06 00:33:54;;;;;;;5.80;3.40;;;;;;;20.25;39.28;100566.66;2095437;28;20563;-75
2021/12/06 00:34:58;;;;;;;8.13;3.67;;;;;;;20.24;39.20;100557.66;2087958;28;20060;-75
2021/12/06 00:36:07;;;;;;;5.30;3.30;;;;;;;20.19;39.19;100557.16;2088365;28;20064;-76
2021/12/06 00:37:22;;;;;;;6.43;3.33;;;;;;;20.25;39.20;100569.41;2087949;28;20516;-75
2021/12/06 00:38:24;;;;;;;5.30;3.15;;;;;;;20.24;39.24;100574.09;2100943;28;20052;-75
2021/12/06 00:39:30;;;;;;;6.65;3.45;;;;;;;20.24;39.20;100554.91;2103634;28;20055;-76
2021/12/06 00:40:38;;;;;;;6.35;3.33;;;;;;;20.24;39.24;100574.09;2102827;28;20102;-76
2021/12/06 00:41:41;;;;;;;5.82;3.42;;;;;;;20.24;39.05;100571.38;2103955;28;20048;-77
2021/12/06 00:42:46;;;;;;;6.93;3.45;;;;;;;20.24;39.19;100565.09;2095742;28;20555;-76
2021/12/06 00:43:49;;;;;;;6.38;3.40;;;;;;;20.23;39.22;100575.25;2103643;28;20056;-75
2021/12/06 00:45:00;;;;;;;4.43;3.05;;;;;;;20.23;39.19;100577.97;2104598;28;20047;-75
2021/12/06 00:46:05;;;;;;;5.68;3.20;;;;;;;20.25;39.12;100577.63;2104194;28;20601;-76
2021/12/06 00:47:10;;;;;;;8.48;3.40;;;;;;;20.23;39.01;100569.75;2095743;28;20056;-76
2021/12/06 00:48:13;;;;;;;5.32;3.22;;;;;;;20.24;38.97;100570.56;2096207;28;20049;-76
2021/12/06 00:49:18;;;;;;;7.50;3.13;;;;;;;20.25;39.05;100563.91;2095480;28;20720;-76
2021/12/06 00:50:25;;;;;;;5.55;3.17;;;;;;;20.23;39.23;100580.72;2096270;28;20048;-76
2021/12/06 00:51:28;;;;;;;5.63;3.15;;;;;;;20.24;39.00;100582.34;2096746;28;20100;-76
2021/12/06 00:52:33;;;;;;;5.50;3.03;;;;;;;20.23;39.06;100569.75;2103626;28;20698;-77
2021/12/06 00:53:39;;;;;;;5.55;3.13;;;;;;;20.23;39.19;100580.72;2104637;28;20044;-76
2021/12/06 00:54:45;;;;;;;4.90;3.10;;;;;;;20.23;39.11;100558.78;2103406;28;20056;-76
2021/12/06 00:55:49;;;;;;;4.15;2.75;;;;;;;20.23;39.05;100569.75;2095464;28;20049;-75
2021/12/06 00:56:53;;;;;;;5.43;3.13;;;;;;;20.23;39.05;100568.97;2104333;28;20059;-75
2021/12/06 00:57:59;;;;;;;5.13;2.90;;;;;;;20.22;39.07;100562.69;2103725;28;20048;-74
2021/12/06 00:59:03;;;;;;;5.50;3.08;;;;;;;20.22;39.10;100567.41;2095811;28;20060;-74
2021/12/06 01:00:20;;;;;;;5.20;2.85;;;;;;;20.22;39.17;100579.16;2096125;28;20052;-74
2021/12/06 01:01:26;;;;;;;5.30;2.90;;;;;;;20.22;39.20;100576.41;2103420;28;20055;-74
2021/12/06 01:02:30;;;;;;;5.10;3.08;;;;;;;20.22;39.18;100576.41;2095232;28;20048;-75
2021/12/06 01:03:38;;;;;;;5.35;2.90;;;;;;;20.21;39.20;100577.56;2095677;28;20765;-74
2021/12/06 01:04:43;;;;;;;4.47;2.80;;;;;;;20.21;39.14;100580.31;2096308;28;20067;-75
2021/12/06 01:05:49;;;;;;;4.85;2.80;;;;;;;20.20;39.17;100575.97;2100610;28;20052;-75
2021/12/06 01:06:53;;;;;;;5.57;2.85;;;;;;;20.20;39.19;100567.75;2095088;28;20078;-74
2021/12/06 01:07:58;;;;;;;4.45;2.80;;;;;;;20.20;39.21;100580.66;2096420;28;20496;-75
2021/12/06 01:09:03;;;;;;;5.28;2.78;;;;;;;20.20;39.19;100580.66;2095668;28;20414;-74
2021/12/06 01:10:12;;;;;;;5.40;2.75;;;;;;;20.18;39.27;100581.03;2095900;28;20041;-75
2021/12/06 01:11:15;;;;;;;4.78;2.85;;;;;;;20.19;39.15;100579.88;2095351;28;20427;-74
2021/12/06 01:12:20;;;;;;;6.80;3.00;;;;;;;20.19;39.19;100582.63;2094664;28;20053;-73
2021/12/06 01:13:25;;;;;;;4.80;3.05;;;;;;;20.17;39.19;100582.22;2094827;28;20056;-75
2021/12/06 01:14:31;;;;;;;4.95;2.95;;;;;;;20.18;39.28;100575.56;2087547;28;20041;-74
2021/12/06 01:15:39;;;;;;;4.22;2.75;;;;;;;20.18;39.17;100589.28;2088040;28;20086;-74
2021/12/06 01:16:43;;;;;;;5.43;2.90;;;;;;;20.17;39.20;100582.22;2087858;28;20044;-74
2021/12/06 01:17:47;;;;;;;3.90;2.58;;;;;;;20.18;39.35;100581.03;2095837;28;20045;-74
2021/12/06 01:18:53;;;;;;;4.18;2.72;;;;;;;20.18;39.36;100580.25;2094767;28;20056;-73
2021/12/06 01:19:56;;;;;;;5.35;2.80;;;;;;;20.18;39.34;100589.28;2086712;28;20045;-76
2021/12/06 01:21:08;;;;;;;5.43;2.78;;;;;;;20.16;39.42;100588.84;2087058;28;20056;-75
2021/12/06 01:22:21;;;;;;;3.72;2.67;;;;;;;20.17;39.57;100587.69;2088012;28;20167;-74
2021/12/06 01:23:30;;;;;;;4.57;2.80;;;;;;;20.16;39.46;100586.09;2088684;28;20051;-73
2021/12/06 01:24:40;;;;;;;5.40;2.80;;;;;;;20.15;39.66;100590.00;2094639;28;20059;-72
2021/12/06 01:25:54;;;;;;;4.72;2.70;;;;;;;20.16;39.65;100601.75;2088762;28;20135;-72
2021/12/06 01:27:13;;;;;;;4.65;2.75;;;;;;;20.12;39.65;100591.50;2088698;28;20119;-72
2021/12/06 01:28:58;;;;;;;4.45;2.70;;;;;;;20.14;39.45;100591.16;2088525;28;20196;-72
2021/12/06 01:31:36;;;;;;;7.00;2.72;;;;;;;20.12;39.46;100593.47;2082347;28;20061;-72
2021/12/06 01:34:11;;;;;;;4.72;2.78;;;;;;;20.12;39.45;100596.22;2084880;28;20055;-72
2021/12/06 01:39:21;;;;;;;4.63;2.60;;;;;;;20.13;39.50;100587.59;2089299;28;20056;-73
2021/12/06 01:40:26;;;;;;;5.95;2.70;;;;;;;20.13;39.28;100600.53;2095083;28;20079;-72
2021/12/06 01:41:31;;;;;;;5.03;2.65;;;;;;;20.13;39.40;100598.56;2094328;28;20044;-72
2021/12/06 01:42:34;;;;;;;5.15;2.50;;;;;;;20.12;39.43;100585.25;2087024;28;20056;-73
2021/12/06 01:43:39;;;;;;;4.80;2.53;;;;;;;20.13;39.45;100597.78;2087483;28;20045;-72
2021/12/06 01:44:49;;;;;;;4.47;2.42;;;;;;;20.13;39.38;100598.56;2088252;28;20634;-73
2021/12/06 01:45:57;;;;;;;4.05;2.35;;;;;;;20.16;39.39;100605.28;2088210;28;20068;-72
2021/12/06 01:47:09;;;;;;;4.43;2.60;;;;;;;20.14;39.41;100602.13;2087112;28;20312;-73
2021/12/06 01:48:14;;;;;;;3.58;2.33;;;;;;;20.15;39.46;100600.19;2088053;28;20049;-73
2021/12/06 01:49:22;;;;;;;5.18;2.67;;;;;;;20.16;39.43;100604.50;2086934;28;20057;-72
2021/12/06 01:50:31;;;;;;;;;;;;;;;20.14;39.38;100599.41;2096536;28;20049;-73
2021/12/06 01:51:38;;;;;;;3.35;2.30;;;;;;;20.13;39.51;100597.78;2094450;28;19920;-73
2021/12/06 01:52:46;;;;;;;3.70;2.33;;;;;;;20.13;39.47;100597.78;2094990;28;20056;-73
2021/12/06 01:53:49;;;;;;;3.95;2.40;;;;;;;20.14;39.48;100593.91;2096053;28;20515;-73
2021/12/06 01:54:55;;;;;;;4.07;2.20;;;;;;;20.14;39.54;100599.41;2095304;28;20052;-73
2021/12/06 01:56:00;;;;;;;5.32;2.78;;;;;;;20.13;39.52;100604.06;2087427;28;20049;-73
2021/12/06 01:57:07;;;;;;;3.38;2.20;;;;;;;20.13;39.65;100606.00;2086933;28;20049;-72
2021/12/06 01:58:12;;;;;;;4.40;2.50;;;;;;;20.13;39.57;100600.53;2086580;28;20068;-73
2021/12/06 01:59:17;;;;;;;4.88;2.40;;;;;;;20.12;39.54;100596.22;2086502;28;20504;-73
2021/12/06 02:00:25;;;;;;;2.70;2.13;;;;;;;20.12;39.65;100596.22;2086558;28;20068;-72
2021/12/06 02:01:37;;;;;;;5.22;2.80;;;;;;;20.12;39.69;100599.75;2087423;28;20265;-73
2021/12/06 02:02:45;;;;;;;4.63;2.50;;;;;;;20.05;39.62;100588.63;2087211;28;20056;-74
2021/12/06 02:04:00;;;;;;;3.50;2.15;;;;;;;20.03;39.79;100576.44;2088363;28;20053;-73
2021/12/06 02:05:07;;;;;;;3.53;2.03;;;;;;;20.09;39.87;100585.97;2087292;28;20436;-74
2021/12/06 02:06:11;;;;;;;3.67;2.40;;;;;;;20.08;39.94;100587.13;2093682;28;20107;-73
2021/12/06 02:07:19;;;;;;;3.70;2.10;;;;;;;20.05;39.95;100588.63;2094755;28;20401;-74
2021/12/06 02:08:25;;;;;;;3.75;2.10;;;;;;;20.08;39.93;100590.66;2102691;28;20059;-73
2021/12/06 02:09:34;;;;;;;4.10;2.50;;;;;;;20.09;40.03;100586.75;2095269;28;20048;-75
2021/12/06 02:10:41;;;;;;;3.75;2.17;;;;;;;20.09;40.19;100592.25;2103375;28;20043;-74
2021/12/06 02:11:51;;;;;;;3.88;2.10;;;;;;;20.08;40.14;100590.66;2103363;28;20055;-73
2021/12/06 02:12:54;;;;;;;3.70;2.20;;;;;;;20.06;40.21;100583.94;2094885;28;20052;-74
2021/12/06 02:14:05;;;;;;;3.13;2.08;;;;;;;20.08;40.19;100584.38;2095471;28;20056;-74
2021/12/06 02:15:25;;;;;;;3.03;1.90;;;;;;;20.08;40.11;100589.88;2095610;28;20045;-74
2021/12/06 02:16:36;;;;;;;3.95;2.30;;;;;;;20.07;40.34;100577.28;2096776;28;20700;-73
2021/12/06 02:17:52;;;;;;;3.70;2.53;;;;;;;20.04;40.18;100572.53;2096255;28;20045;-73
2021/12/06 02:19:03;;;;;;;3.38;2.17;;;;;;;20.06;40.35;100575.72;2096226;28;20055;-73
2021/12/06 02:20:10;;;;;;;3.22;2.20;;;;;;;20.08;40.32;100587.13;2102858;28;20538;-73
2021/12/06 02:21:28;;;;;;;6.00;2.40;;;;;;;20.07;40.28;100582.78;2103542;28;20044;-73
2021/12/06 02:22:36;;;;;;;2.53;2.05;;;;;;;20.07;40.46;100586.31;2095718;28;20154;-71
2021/12/06 02:23:40;;;;;;;3.22;2.28;;;;;;;20.07;40.42;100591.78;2095384;28;20049;-73
2021/12/06 02:24:44;;;;;;;3.60;2.28;;;;;;;20.07;40.42;100585.53;2094947;28;20048;-73
2021/12/06 02:25:49;;;;;;;3.13;1.80;;;;;;;20.07;40.51;100577.28;2094865;28;20610;-73
2021/12/06 02:26:55;;;;;;;3.08;2.00;;;;;;;20.07;40.40;100582.78;2095243;28;20048;-73
2021/12/06 02:28:01;;;;;;;3.50;2.28;;;;;;;20.07;40.50;100594.53;2095139;28;20064;-73
2021/12/06 02:29:11;;;;;;;3.30;1.95;;;;;;;20.06;40.50;100586.69;2102925;28;20032;-72
2021/12/06 02:30:15;;;;;;;3.53;2.25;;;;;;;20.05;40.20;100582.38;2102662;28;20052;-73
2021/12/06 02:31:22;;;;;;;4.05;1.90;;;;;;;20.05;40.45;100580.41;2094988;28;20515;-72
2021/12/06 02:32:26;;;;;;;3.72;1.95;;;;;;;20.04;40.52;100580.75;2103616;28;20044;-72
2021/12/06 02:33:34;;;;;;;2.90;1.90;;;;;;;20.05;40.48;100583.16;2102680;28;20056;-72
2021/12/06 02:34:37;;;;;;;4.30;2.30;;;;;;;20.05;40.52;100591.38;2103614;28;20055;-72
2021/12/06 02:35:42;;;;;;;3.70;1.95;;;;;;;20.06;40.48;100603.13;2094983;28;20053;-72
2021/12/06 02:36:51;;;;;;;4.10;2.20;;;;;;;20.02;40.45;100586.63;2095336;28;20396;-72
2021/12/06 02:37:57;;;;;;;2.83;2.00;;;;;;;20.05;40.42;100587.84;2095420;28;20052;-73
2021/12/06 02:39:00;;;;;;;3.65;2.22;;;;;;;20.06;40.41;100587.47;2086702;28;20056;-72
2021/12/06 02:40:11;;;;;;;2.95;2.03;;;;;;;20.07;40.48;100591.00;2086091;28;20045;-72
2021/12/06 02:41:18;;;;;;;3.17;1.85;;;;;;;20.07;40.34;100591.00;2087927;28;20049;-72
2021/12/06 02:42:26;;;;;;;3.00;2.00;;;;;;;20.05;40.43;100594.13;2087159;28;20068;-73
2021/12/06 02:43:29;;;;;;;3.72;2.13;;;;;;;20.02;40.40;100591.31;2086225;28;20036;-73
2021/12/06 02:44:37;;;;;;;2.72;1.85;;;;;;;20.07;40.39;100591.00;2095331;28;20037;-73
2021/12/06 02:45:42;;;;;;;2.75;1.75;;;;;;;20.07;40.35;100593.75;2094737;28;20044;-73
2021/12/06 02:46:47;;;;;;;3.00;1.80;;;;;;;20.08;40.32;100606.31;2094384;28;20052;-74
2021/12/06 02:47:53;;;;;;;3.03;1.85;;;;;;;20.08;40.28;100603.59;2086208;28;20057;-74
2021/12/06 02:49:03;;;;;;;2.08;1.63;;;;;;;20.08;40.39;100615.34;2095602;28;20053;-74
2021/12/06 02:50:09;;;;;;;3.03;1.73;;;;;;;20.08;40.19;100614.56;2093958;28;20048;-74
2021/12/06 02:51:17;;;;;;;4.53;2.15;;;;;;;20.08;40.23;100604.38;2094869;28;20082;-74
2021/12/06 02:52:25;;;;;;;;;;;;;;;20.06;40.18;100598.44;2095728;28;20041;-74
2021/12/06 02:53:34;;;;;;;3.28;1.80;;;;;;;20.06;40.18;100600.41;2094823;28;19920;-73
2021/12/06 02:54:43;;;;;;;3.88;1.83;;;;;;;20.07;40.11;100604.72;2087283;28;20049;-73
2021/12/06 02:55:52;;;;;;;2.47;1.60;;;;;;;20.06;40.08;100608.63;2087711;28;20068;-74
2021/12/06 02:57:18;;;;;;;12.40;1.70;;;;;;;20.06;40.14;100616.84;2086820;28;20052;-74
2021/12/06 02:58:46;;;;;;;3.63;1.73;;;;;;;20.02;40.06;100607.78;2088622;28;20053;-74
2021/12/06 02:59:52;;;;;;;3.05;1.52;;;;;;;20.04;40.05;100608.19;2090344;28;20044;-74
2021/12/06 03:00:56;;;;;;;2.55;1.80;;;;;;;20.04;40.06;100610.94;2087042;28;20119;-74
2021/12/06 03:02:05;;;;;;;3.03;1.85;;;;;;;20.04;40.11;100619.94;2094804;28;20040;-74
2021/12/06 03:03:09;;;;;;;2.65;1.73;;;;;;;20.03;39.99;100617.56;2094456;28;20056;-76
2021/12/06 03:04:16;;;;;;;3.13;1.73;;;;;;;20.03;40.07;100615.63;2094618;28;20048;-75
2021/12/06 03:05:20;;;;;;;3.50;1.60;;;;;;;20.03;39.94;100617.56;2095175;28;20056;-76
2021/12/06 03:06:29;;;;;;;2.60;1.63;;;;;;;20.03;40.05;100620.31;2094562;28;20048;-75
2021/12/06 03:07:39;;;;;;;3.00;1.98;;;;;;;20.02;40.06;100622.28;2087155;28;20071;-75
2021/12/06 03:08:47;;;;;;;2.65;1.67;;;;;;;20.01;40.09;100625.34;2086701;28;20053;-75
2021/12/06 03:09:54;;;;;;;2.53;1.98;;;;;;;20.01;40.11;100625.34;2087038;28;20041;-75
2021/12/06 03:10:58;;;;;;;2.30;1.63;;;;;;;20.00;39.99;100627.31;2094871;28;20056;-76
2021/12/06 03:12:07;;;;;;;2.40;1.50;;;;;;;20.00;40.04;100621.03;2094611;28;20052;-75
2021/12/06 03:14:35;;;;;;;2.90;1.58;;;;;;;20.00;40.02;100626.53;2088271;28;20052;-75
2021/12/06 03:15:43;;;;;;;4.00;1.70;;;;;;;20.00;40.05;100621.03;2088630;28;20049;-75
2021/12/06 03:16:51;;;;;;;2.08;1.40;;;;;;;20.00;40.10;100627.31;2087258;28;20059;-75
2021/12/06 03:17:54;;;;;;;2.60;1.80;;;;;;;20.00;39.96;100618.28;2086787;28;20045;-74
2021/12/06 03:19:00;;;;;;;2.33;1.63;;;;;;;20.00;40.02;100618.28;2093899;28;20045;-75
2021/12/06 03:20:13;;;;;;;2.58;1.73;;;;;;;20.00;40.02;100626.53;2094153;28;20040;-75
2021/12/06 03:21:20;;;;;;;2.67;1.63;;;;;;;19.99;40.12;100624.94;2087715;28;20049;-73
2021/12/06 03:22:38;;;;;;;2.45;1.67;;;;;;;19.99;40.08;100630.44;2087210;28;20053;-74
2021/12/06 03:23:59;;;;;;;2.78;1.67;;;;;;;19.98;40.07;100632.38;2093805;28;20496;-74
2021/12/06 03:25:06;;;;;;;3.38;1.60;;;;;;;19.99;40.24;100633.16;2094570;28;20056;-75
2021/12/06 03:26:12;;;;;;;1.98;1.45;;;;;;;19.99;40.15;100635.91;2087094;28;20176;-73
2021/12/06 03:27:17;;;;;;;2.42;1.50;;;;;;;19.99;40.32;100635.91;2087045;28;20049;-74
2021/12/06 03:28:22;;;;;;;3.28;1.55;;;;;;;19.99;40.25;100630.44;2086487;28;20583;-75
2021/12/06 03:29:30;;;;;;;2.05;1.55;;;;;;;19.97;40.25;100632.72;2086651;28;20079;-74
2021/12/06 03:30:36;;;;;;;1.90;1.48;;;;;;;19.98;40.38;100628.81;2094709;28;20412;-74
2021/12/06 03:31:42;;;;;;;2.60;1.55;;;;;;;19.98;40.22;100635.13;2094467;28;20049;-73
2021/12/06 03:32:48;;;;;;;2.20;1.55;;;;;;;19.97;40.19;100635.47;2087194;28;20045;-74
2021/12/06 03:33:56;;;;;;;3.47;1.80;;;;;;;19.98;40.31;100637.03;2086784;28;20440;-75
2021/12/06 03:35:03;;;;;;;2.33;1.50;;;;;;;19.98;40.29;100637.88;2094349;28;20683;-75
2021/12/06 03:36:10;;;;;;;1.90;1.33;;;;;;;19.96;40.33;100639.38;2094436;28;20516;-75
2021/12/06 03:37:13;;;;;;;4.57;1.50;;;;;;;19.97;40.33;100639.00;2086787;28;20528;-75
2021/12/06 03:38:19;;;;;;;2.63;1.50;;;;;;;19.96;40.42;100642.91;2088697;28;20519;-75
2021/12/06 03:39:28;;;;;;;2.33;1.50;;;;;;;19.98;40.29;100645.28;2094847;28;20060;-75
2021/12/06 03:40:34;;;;;;;3.25;1.60;;;;;;;19.98;40.35;100639.78;2101935;28;20495;-75
2021/12/06 03:41:36;;;;;;;2.63;1.67;;;;;;;19.98;40.22;100645.28;2094808;28;20393;-75
2021/12/06 03:42:42;;;;;;;2.13;1.50;;;;;;;19.98;40.08;100637.88;2095074;28;20055;-75
2021/12/06 03:43:48;;;;;;;2.58;1.58;;;;;;;19.99;40.31;100642.19;2096814;28;20037;-75
2021/12/06 03:44:53;;;;;;;1.92;1.40;;;;;;;19.99;40.21;100644.13;2096424;28;20071;-75
2021/12/06 03:45:58;;;;;;;3.58;1.85;;;;;;;19.98;40.22;100634.31;2104321;28;20062;-73
2021/12/06 03:47:06;;;;;;;2.45;1.50;;;;;;;19.99;40.22;100646.88;2103924;28;20044;-74
2021/12/06 03:48:11;;;;;;;2.22;1.30;;;;;;;19.99;40.18;100628.47;2096149;28;20063;-75
2021/12/06 03:49:15;;;;;;;2.25;1.52;;;;;;;19.99;40.16;100647.66;2096382;28;20049;-74
2021/12/06 03:50:21;;;;;;;1.92;1.35;;;;;;;20.00;40.29;100640.22;2096412;28;20040;-73
2021/12/06 03:51:27;;;;;;;2.35;1.35;;;;;;;20.00;40.22;100642.97;2104892;28;20062;-74
2021/12/06 03:52:33;;;;;;;2.17;1.30;;;;;;;19.99;40.15;100633.16;2096558;28;20804;-74
2021/12/06 03:53:38;;;;;;;3.10;1.60;;;;;;;19.99;40.16;100635.91;2096237;28;20400;-74
2021/12/06 03:54:46;;;;;;;2.38;1.45;;;;;;;19.99;40.24;100639.44;2095625;28;20143;-74
2021/12/06 03:55:50;;;;;;;;;;;;;;;20.00;40.25;100642.97;2096938;28;20068;-75
2021/12/06 03:56:59;;;;;;;2.75;1.45;;;;;;;19.98;40.13;100639.78;2096146;28;20596;-76
2021/12/06 03:58:05;;;;;;;2.45;1.48;;;;;;;19.98;40.26;100639.78;2096419;28;20052;-76
2021/12/06 03:59:10;;;;;;;2.67;1.30;;;;;;;19.98;40.30;100650.75;2096693;28;20055;-75
2021/12/06 04:00:20;;;;;;;1.65;1.27;;;;;;;19.98;40.19;100650.75;2105160;28;20044;-75
2021/12/06 04:01:32;;;;;;;2.05;1.23;;;;;;;19.99;40.20;100655.09;2103874;28;20047;-75
2021/12/06 04:02:38;;;;;;;1.98;1.35;;;;;;;19.98;40.37;100650.75;2096494;28;20052;-75
2021/12/06 04:03:43;;;;;;;3.83;1.48;;;;;;;19.96;40.29;100648.38;2096028;28;20166;-75
2021/12/06 04:04:47;;;;;;;2.30;1.40;;;;;;;19.97;40.34;100649.97;2104697;28;20047;-74
2021/12/06 04:05:52;;;;;;;2.45;1.40;;;;;;;19.98;40.32;100658.97;2100809;28;20056;-75
2021/12/06 04:06:56;;;;;;;2.42;1.60;;;;;;;19.94;40.33;100645.19;2088446;28;20041;-74
2021/12/06 04:08:05;;;;;;;2.28;1.40;;;;;;;19.97;40.32;100651.91;2095865;28;20052;-75
2021/12/06 04:09:09;;;;;;;2.50;1.48;;;;;;;19.98;40.37;100661.72;2087892;28;20061;-74
2021/12/06 04:10:17;;;;;;;2.00;1.20;;;;;;;19.96;40.49;100658.56;2087664;28;20057;-75
2021/12/06 04:11:22;;;;;;;2.47;1.33;;;;;;;19.96;40.47;100659.34;2096386;28;20659;-75
2021/12/06 04:12:27;;;;;;;4.13;1.45;;;;;;;19.97;40.39;100654.66;2104070;28;20130;-75
2021/12/06 04:13:31;;;;;;;1.50;1.15;;;;;;;19.97;40.50;100660.16;2097045;28;20052;-75
2021/12/06 04:14:39;;;;;;;1.90;1.40;;;;;;;19.96;40.54;100659.34;2096347;28;20052;-73
2021/12/06 04:15:45;;;;;;;4.43;1.45;;;;;;;19.97;40.51;100662.88;2088183;28;20423;-71
2021/12/06 04:16:49;;;;;;;3.08;1.20;;;;;;;19.96;40.59;100659.34;2087849;28;20040;-71
2021/12/06 04:17:55;;;;;;;2.35;1.20;;;;;;;19.96;40.64;100658.56;2095659;28;20044;-72
2021/12/06 04:18:59;;;;;;;3.05;1.30;;;;;;;19.97;40.72;100660.16;2096051;28;20063;-72
2021/12/06 04:20:03;;;;;;;2.58;1.20;;;;;;;19.97;40.65;100671.13;2087805;28;20064;-71
2021/12/06 04:21:09;;;;;;;2.47;1.58;;;;;;;19.97;40.77;100665.63;2087857;28;20055;-72
2021/12/06 04:22:14;;;;;;;4.80;1.40;;;;;;;19.97;40.71;100665.63;2088358;28;20527;-71
2021/12/06 04:23:19;;;;;;;2.30;1.45;;;;;;;19.97;40.82;100668.38;2095578;28;20053;-72
2021/12/06 04:24:22;;;;;;;1.65;1.30;;;;;;;19.95;40.73;100668.75;2103592;28;20044;-72
2021/12/06 04:25:30;;;;;;;2.08;1.30;;;;;;;19.97;40.89;100665.63;2096106;28;20056;-71
2021/12/06 04:26:33;;;;;;;2.25;1.33;;;;;;;19.96;40.87;100666.78;2088563;28;20555;-72
2021/12/06 04:27:40;;;;;;;2.83;1.38;;;;;;;19.96;40.94;100670.31;2087453;28;20045;-72
2021/12/06 04:28:49;;;;;;;3.10;1.50;;;;;;;19.96;41.04;100675.81;2095721;28;20036;-72
2021/12/06 04:29:56;;;;;;;2.35;1.30;;;;;;;19.96;40.99;100675.03;2096769;28;20051;-72
2021/12/06 04:31:03;;;;;;;2.63;1.70;;;;;;;19.96;40.97;100680.50;2096194;28;20043;-71
2021/12/06 04:32:09;;;;;;;4.53;1.33;;;;;;;19.95;40.95;100671.50;2095626;28;20056;-72
2021/12/06 04:33:14;;;;;;;2.30;1.30;;;;;;;19.96;40.95;100670.31;2095567;28;20049;-71
2021/12/06 04:34:18;;;;;;;2.50;1.33;;;;;;;19.95;41.04;100663.25;2095780;28;20056;-72
2021/12/06 04:35:25;;;;;;;3.05;1.25;;;;;;;19.96;40.90;100667.59;2096077;28;20052;-71
2021/12/06 04:36:31;;;;;;;2.45;1.30;;;;;;;19.95;40.96;100667.94;2088343;28;20057;-71
2021/12/06 04:37:35;;;;;;;1.83;1.23;;;;;;;19.94;40.96;100672.63;2088626;28;20052;-71
2021/12/06 04:38:39;;;;;;;1.60;1.10;;;;;;;19.94;40.98;100663.59;2092912;28;20048;-71
2021/12/06 04:39:45;;;;;;;2.63;1.30;;;;;;;19.94;40.96;100669.09;2103275;28;20040;-72
2021/12/06 04:40:54;;;;;;;2.13;1.30;;;;;;;19.94;40.96;100672.63;2103587;28;20059;-71
2021/12/06 04:41:59;;;;;;;2.10;1.17;;;;;;;19.94;40.89;100678.09;2103450;28;20059;-72
2021/12/06 04:43:04;;;;;;;1.98;1.17;;;;;;;19.93;40.79;100670.22;2104148;28;20976;-71
2021/12/06 04:44:09;;;;;;;1.27;1.00;;;;;;;19.95;40.87;100673.41;2103882;28;20075;-73
2021/12/06 04:45:14;;;;;;;1.98;1.17;;;;;;;19.96;40.82;100672.28;2096082;28;20443;-74
2021/12/06 04:46:21;;;;;;;1.40;1.20;;;;;;;19.95;40.90;100667.94;2096412;28;20055;-75
2021/12/06 04:47:26;;;;;;;1.15;1.00;;;;;;;19.93;40.97;100664.75;2104239;28;20044;-74
2021/12/06 04:48:30;;;;;;;2.90;1.13;;;;;;;19.96;40.81;100675.03;2103656;28;20044;-75
2021/12/06 04:49:35;;;;;;;1.33;1.13;;;;;;;19.96;40.95;100677.75;2104348;28;20510;-74
2021/12/06 04:50:40;;;;;;;1.48;1.08;;;;;;;19.94;40.88;100678.09;2104003;28;20561;-75
2021/12/06 04:51:51;;;;;;;1.55;1.10;;;;;;;19.96;40.97;100675.81;2096515;28;20428;-71
2021/12/06 04:52:57;;;;;;;3.78;1.45;;;;;;;19.96;40.94;100669.53;2096757;28;20055;-73
2021/12/06 04:54:02;;;;;;;2.15;1.23;;;;;;;19.96;40.94;100675.03;2095720;28;20115;-73
2021/12/06 04:55:10;;;;;;;1.55;1.20;;;;;;;19.94;40.92;100672.63;2103799;28;20387;-73
2021/12/06 04:56:21;;;;;;;2.13;1.30;;;;;;;19.95;40.99;100679.72;2103222;28;20380;-74
2021/12/06 04:57:27;;;;;;;2.08;1.17;;;;;;;19.96;40.94;100677.75;2096221;28;20048;-72
2021/12/06 04:58:39;;;;;;;2.25;1.38;;;;;;;19.96;40.93;100669.53;2103847;28;20050;-73
2021/12/06 04:59:46;;;;;;;1.20;1.00;;;;;;;19.94;40.91;100680.06;2096576;28;20114;-74
2021/12/06 05:01:02;;;;;;;2.67;1.30;;;;;;;19.94;40.86;100682.81;2096320;28;20056;-74
2021/12/06 05:02:09;;;;;;;1.58;1.10;;;;;;;19.94;40.78;100671.84;2103439;28;20040;-74
2021/12/06 05:03:15;;;;;;;2.42;1.20;;;;;;;19.94;40.98;100680.84;2103531;28;20044;-74
2021/12/06 05:04:28;;;;;;;1.88;1.17;;;;;;;19.94;40.91;100680.84;2095848;28;20056;-74
2021/12/06 05:05:40;;;;;;;2.22;1.10;;;;;;;19.91;40.57;100684.28;2095852;28;20044;-74
2021/12/06 05:06:47;;;;;;;2.65;1.30;;;;;;;19.93;41.05;100675.72;2088900;28;20052;-73
2021/12/06 05:07:55;;;;;;;1.60;1.05;;;;;;;19.91;40.88;100676.84;2087097;28;20048;-73
2021/12/06 05:09:06;;;;;;;1.50;1.08;;;;;;;19.91;40.91;100690.56;2087763;28;20049;-73
2021/12/06 05:10:13;;;;;;;2.10;1.23;;;;;;;19.91;40.68;100684.28;2088950;28;20052;-73
2021/12/06 05:11:25;;;;;;;1.13;1.02;;;;;;;19.91;41.08;100687.03;2095355;28;20044;-75
2021/12/06 05:12:32;;;;;;;1.58;1.00;;;;;;;19.91;41.08;100685.06;2095431;28;20045;-75
2021/12/06 05:13:44;;;;;;;1.55;1.00;;;;;;;19.83;40.90;100671.59;2088592;28;20731;-74
2021/12/06 05:14:51;;;;;;;1.70;0.88;;;;;;;19.90;40.90;100682.69;2088540;28;20115;-74
2021/12/06 05:15:56;;;;;;;1.90;0.82;;;;;;;19.91;40.94;100678.78;2095621;28;20554;-75
2021/12/06 05:17:01;;;;;;;1.42;1.13;;;;;;;19.91;40.96;100696.03;2094853;28;20439;-72
2021/12/06 05:18:07;;;;;;;1.90;1.15;;;;;;;19.91;41.12;100682.31;2095120;28;20150;-72
2021/12/06 05:19:11;;;;;;;1.50;1.00;;;;;;;19.92;41.11;100691.38;2087249;28;20048;-72
2021/12/06 05:20:18;;;;;;;1.23;1.02;;;;;;;19.91;41.17;100689.75;2087274;28;20057;-73
2021/12/06 05:21:24;;;;;;;2.05;1.10;;;;;;;19.92;41.22;100688.63;2087054;28;20058;-70
2021/12/06 05:22:32;;;;;;;1.70;0.90;;;;;;;19.89;40.52;100686.59;2095781;28;20040;-76